Time;durP1;ratioP1;P1;durP2;ratioP2;P2;SDS_P1;SDS_P2;PMS_P1;PMS_P2;Temp;Humidity;BMP_temperature;BMP_pressure;BME280_temperature;BME280_humidity;BME280_pressure;Samples;Min_cycle;Max_cycle;Signal;HPM_P1;HPM_P2
2020/12/09 00:00:09;;;;;;;6.17;5.00;;;;;;;;;;5093979;28;20172;-64
2020/12/09 00:02:34;;;;;;;5.65;4.90;;;;;;;;;;5093703;28;20678;-63
2020/12/09 00:05:01;;;;;;;5.80;5.07;;;;;;;;;;5093559;28;20188;-62
2020/12/09 00:07:26;;;;;;;6.57;5.40;;;;;;;;;;5094373;28;20201;-64
2020/12/09 00:09:52;;;;;;;5.27;4.77;;;;;;;;;;5093938;28;20226;-65
2020/12/09 00:12:17;;;;;;;5.00;4.50;;;;;;;;;;5093201;28;20201;-65
2020/12/09 00:14:42;;;;;;;5.63;4.80;;;;;;;;;;5093522;28;20268;-65
2020/12/09 00:17:09;;;;;;;4.97;4.50;;;;;;;;;;5093211;28;20181;-64
2020/12/09 00:19:34;;;;;;;5.93;4.80;;;;;;;;;;5093239;28;20622;-65
2020/12/09 00:21:59;;;;;;;5.30;4.80;;;;;;;;;;5096989;28;20172;-64
2020/12/09 00:24:24;;;;;;;5.33;4.73;;;;;;;;;;5097269;28;20259;-63
2020/12/09 00:26:50;;;;;;;5.43;4.93;;;;;;;;;;5097590;28;20302;-63
2020/12/09 00:29:15;;;;;;;5.57;5.07;;;;;;;;;;5097131;28;20184;-63
2020/12/09 00:31:41;;;;;;;5.50;5.00;;;;;;;;;;5097172;28;20424;-65
2020/12/09 00:34:06;;;;;;;6.00;4.90;;;;;;;;;;5097453;28;20637;-64
2020/12/09 00:36:31;;;;;;;5.30;4.80;;;;;;;;;;5097173;28;20185;-63
2020/12/09 00:38:57;;;;;;;5.33;4.77;;;;;;;;;;5097210;28;20184;-65
2020/12/09 00:41:24;;;;;;;6.03;5.00;;;;;;;;;;5097229;28;20187;-66
2020/12/09 00:43:50;;;;;;;6.00;5.20;;;;;;;;;;5097135;28;20200;-65
2020/12/09 00:46:21;;;;;;;5.00;4.50;;;;;;;;;;5097576;28;20215;-64
2020/12/09 00:48:47;;;;;;;5.40;4.90;;;;;;;;;;5095908;28;20217;-64
2020/12/09 00:51:17;;;;;;;5.33;4.83;;;;;;;;;;5096991;28;20234;-64
2020/12/09 00:53:42;;;;;;;5.03;4.53;;;;;;;;;;5097274;28;20302;-64
2020/12/09 00:56:09;;;;;;;5.47;4.70;;;;;;;;;;5096888;28;20635;-65
2020/12/09 00:58:35;;;;;;;5.33;4.73;;;;;;;;;;5096984;28;20633;-64
2020/12/09 01:01:00;;;;;;;5.13;4.63;;;;;;;;;;5096600;28;20172;-64
2020/12/09 01:03:25;;;;;;;5.20;4.70;;;;;;;;;;5096592;28;20176;-64
2020/12/09 01:05:51;;;;;;;5.30;4.80;;;;;;;;;;5096278;28;20181;-64
2020/12/09 01:08:17;;;;;;;5.10;4.60;;;;;;;;;;5097428;28;20633;-64
2020/12/09 01:10:42;;;;;;;5.32;4.82;;;;;;;;;;5097170;28;20169;-65
2020/12/09 01:13:07;;;;;;;5.13;4.63;;;;;;;;;;5096995;28;20200;-64
2020/12/09 01:15:32;;;;;;;5.37;4.87;;;;;;;;;;5096424;28;20180;-63
2020/12/09 01:17:58;;;;;;;5.80;4.77;;;;;;;;;;5096195;28;20214;-63
2020/12/09 01:20:23;;;;;;;5.20;4.70;;;;;;;;;;5096463;28;20541;-62
2020/12/09 01:22:48;;;;;;;5.50;4.83;;;;;;;;;;5096509;28;20259;-64
2020/12/09 01:25:14;;;;;;;5.30;4.80;;;;;;;;;;5096635;28;20618;-63
2020/12/09 01:27:39;;;;;;;5.03;4.20;;;;;;;;;;5096338;28;20180;-63
2020/12/09 01:30:04;;;;;;;5.23;4.73;;;;;;;;;;5096140;28;20272;-64
2020/12/09 01:32:30;;;;;;;5.50;4.87;;;;;;;;;;5095381;28;20188;-63
2020/12/09 01:34:55;;;;;;;6.03;5.07;;;;;;;;;;5096273;28;20177;-64
2020/12/09 01:37:20;;;;;;;6.00;5.07;;;;;;;;;;5096480;28;20175;-63
2020/12/09 01:39:46;;;;;;;6.33;5.00;;;;;;;;;;5096332;28;20173;-63
2020/12/09 01:42:12;;;;;;;5.00;4.50;;;;;;;;;;5096380;28;20264;-64
2020/12/09 01:44:37;;;;;;;4.90;4.40;;;;;;;;;;5095983;28;20192;-63
2020/12/09 01:47:04;;;;;;;5.77;4.87;;;;;;;;;;5095594;28;20216;-63
2020/12/09 01:49:30;;;;;;;5.27;4.77;;;;;;;;;;5095915;28;20618;-64
2020/12/09 01:51:55;;;;;;;5.20;4.60;;;;;;;;;;5095728;28;20193;-64
2020/12/09 01:54:20;;;;;;;5.33;4.83;;;;;;;;;;5095622;28;20259;-63
2020/12/09 01:57:05;;;;;;;5.47;4.57;;;;;;;;;;5095421;28;20180;-65
2020/12/09 01:59:30;;;;;;;5.27;4.60;;;;;;;;;;5095487;28;20197;-64
2020/12/09 02:01:55;;;;;;;5.90;4.80;;;;;;;;;;5096368;28;20177;-64
2020/12/09 02:04:20;;;;;;;6.17;5.30;;;;;;;;;;5095436;28;20181;-65
2020/12/09 02:06:50;;;;;;;5.30;4.73;;;;;;;;;;5095138;28;20287;-65
2020/12/09 02:09:16;;;;;;;5.40;4.90;;;;;;;;;;5095141;28;20181;-65
2020/12/09 02:11:41;;;;;;;5.77;5.17;;;;;;;;;;5095125;28;20211;-65
2020/12/09 02:14:06;;;;;;;5.13;4.50;;;;;;;;;;5095285;28;20176;-64
2020/12/09 02:16:31;;;;;;;5.63;5.10;;;;;;;;;;5095768;28;20673;-64
2020/12/09 02:18:57;;;;;;;5.30;4.80;;;;;;;;;;5095768;28;20172;-64
2020/12/09 02:21:22;;;;;;;5.60;4.73;;;;;;;;;;5095138;28;20259;-64
2020/12/09 02:23:47;;;;;;;5.40;4.90;;;;;;;;;;5094965;28;20173;-65
2020/12/09 02:26:12;;;;;;;6.57;5.20;;;;;;;;;;5095117;28;20185;-64
2020/12/09 02:28:38;;;;;;;5.17;4.67;;;;;;;;;;5094894;28;20693;-64
2020/12/09 02:31:03;;;;;;;5.30;4.80;;;;;;;;;;5094659;28;20232;-64
2020/12/09 02:33:28;;;;;;;5.37;4.87;;;;;;;;;;5094695;28;20232;-64
2020/12/09 02:35:53;;;;;;;5.97;5.03;;;;;;;;;;5094838;28;20183;-64
2020/12/09 02:38:19;;;;;;;6.00;5.40;;;;;;;;;;5094660;28;20173;-64
2020/12/09 02:40:44;;;;;;;5.43;4.70;;;;;;;;;;5094766;28;20177;-64
2020/12/09 02:43:09;;;;;;;4.83;4.33;;;;;;;;;;5094249;28;20173;-63
2020/12/09 02:45:35;;;;;;;4.67;4.27;;;;;;;;;;5094896;28;20210;-64
2020/12/09 02:48:00;;;;;;;5.17;4.60;;;;;;;;;;5094694;28;20637;-64
2020/12/09 02:50:25;;;;;;;5.47;4.77;;;;;;;;;;5094671;28;20257;-64
2020/12/09 02:52:51;;;;;;;5.87;4.90;;;;;;;;;;5094526;28;20638;-64
2020/12/09 02:55:18;;;;;;;6.20;5.30;;;;;;;;;;5094443;28;20226;-64
2020/12/09 02:57:44;;;;;;;5.10;4.60;;;;;;;;;;5094709;28;20195;-64
2020/12/09 03:00:09;;;;;;;5.73;5.13;;;;;;;;;;5095013;28;20189;-64
2020/12/09 03:02:34;;;;;;;5.50;4.80;;;;;;;;;;5094471;28;20250;-65
2020/12/09 03:04:59;;;;;;;5.30;4.80;;;;;;;;;;5094274;28;20176;-66
2020/12/09 03:07:25;;;;;;;5.70;5.10;;;;;;;;;;5094026;28;20653;-65
2020/12/09 03:09:50;;;;;;;5.80;5.13;;;;;;;;;;5094033;28;20181;-64
2020/12/09 03:12:16;;;;;;;5.70;5.20;;;;;;;;;;5094357;28;20195;-65
2020/12/09 03:14:41;;;;;;;4.90;4.40;;;;;;;;;;5094688;28;20635;-63
2020/12/09 03:17:06;;;;;;;5.63;5.03;;;;;;;;;;5094340;28;20177;-63
2020/12/09 03:19:31;;;;;;;5.23;4.73;;;;;;;;;;5094021;28;20191;-63
2020/12/09 03:21:57;;;;;;;5.30;4.80;;;;;;;;;;5094550;28;20204;-64
2020/12/09 03:24:22;;;;;;;5.17;4.67;;;;;;;;;;5094378;28;20173;-64
2020/12/09 03:26:48;;;;;;;5.67;4.70;;;;;;;;;;5093725;28;20629;-64
2020/12/09 03:29:13;;;;;;;5.93;5.13;;;;;;;;;;5093713;28;20264;-64
2020/12/09 03:31:38;;;;;;;5.30;4.80;;;;;;;;;;5093568;28;20364;-65
2020/12/09 03:34:04;;;;;;;5.70;5.00;;;;;;;;;;5094036;28;20594;-66
2020/12/09 03:36:29;;;;;;;5.17;4.67;;;;;;;;;;5094346;28;20172;-65
2020/12/09 03:38:54;;;;;;;5.00;4.50;;;;;;;;;;5093693;28;20596;-64
2020/12/09 03:41:19;;;;;;;5.40;4.90;;;;;;;;;;5094230;28;20256;-65
2020/12/09 03:43:45;;;;;;;4.80;4.30;;;;;;;;;;5094251;28;20214;-64
2020/12/09 03:46:10;;;;;;;4.43;4.03;;;;;;;;;;5094007;28;20172;-65
2020/12/09 03:48:36;;;;;;;5.03;4.20;;;;;;;;;;5094002;28;20226;-64
2020/12/09 03:51:01;;;;;;;5.30;4.80;;;;;;;;;;5093974;28;20204;-65
2020/12/09 03:53:27;;;;;;;5.93;5.30;;;;;;;;;;5093592;28;20208;-64
2020/12/09 03:55:52;;;;;;;5.77;4.97;;;;;;;;;;5092638;28;20176;-63
2020/12/09 03:58:18;;;;;;;5.53;4.73;;;;;;;;;;5093389;28;20656;-64
2020/12/09 04:00:43;;;;;;;5.30;4.80;;;;;;;;;;5093439;28;20229;-64
2020/12/09 04:03:08;;;;;;;5.13;4.63;;;;;;;;;;5093748;28;20642;-64
2020/12/09 04:05:34;;;;;;;5.20;4.63;;;;;;;;;;5094292;28;20191;-63
2020/12/09 04:08:00;;;;;;;5.33;4.80;;;;;;;;;;5093760;28;20196;-65
2020/12/09 04:10:25;;;;;;;5.87;5.07;;;;;;;;;;5094565;28;20177;-64
2020/12/09 04:12:52;;;;;;;5.17;4.67;;;;;;;;;;5093464;28;20200;-65
2020/12/09 04:15:17;;;;;;;4.77;4.37;;;;;;;;;;5093546;28;20177;-65
2020/12/09 04:17:43;;;;;;;5.73;4.90;;;;;;;;;;5093548;28;20675;-65
2020/12/09 04:20:08;;;;;;;5.07;4.57;;;;;;;;;;5093487;28;20626;-64
2020/12/09 04:22:34;;;;;;;5.77;4.97;;;;;;;;;;5093453;28;20208;-64
2020/12/09 04:25:00;;;;;;;5.07;4.57;;;;;;;;;;5093176;28;20184;-64
2020/12/09 04:27:25;;;;;;;5.30;4.63;;;;;;;;;;5093088;28;20548;-64
2020/12/09 04:29:50;;;;;;;5.93;5.07;;;;;;;;;;5093137;28;20202;-64
2020/12/09 04:32:16;;;;;;;5.03;4.40;;;;;;;;;;5092815;28;20718;-64
2020/12/09 04:34:41;;;;;;;4.97;4.43;;;;;;;;;;5093292;28;20180;-64
2020/12/09 04:37:10;;;;;;;5.23;4.73;;;;;;;;;;5093400;28;20191;-64
2020/12/09 04:39:36;;;;;;;5.27;4.77;;;;;;;;;;5093291;28;20188;-64
2020/12/09 04:42:01;;;;;;;5.23;4.73;;;;;;;;;;5093035;28;20181;-64
2020/12/09 04:44:26;;;;;;;5.20;4.70;;;;;;;;;;5093013;28;20200;-65
2020/12/09 04:46:52;;;;;;;5.13;4.63;;;;;;;;;;5093032;28;20532;-64
2020/12/09 04:49:20;;;;;;;5.00;4.50;;;;;;;;;;5093064;28;20173;-64
2020/12/09 04:52:07;;;;;;;5.57;4.77;;;;;;;;;;5092971;28;20254;-64
2020/12/09 04:54:39;;;;;;;4.93;4.43;;;;;;;;;;5093568;28;20183;-64
2020/12/09 04:57:37;;;;;;;5.30;4.80;;;;;;;;;;5093178;28;20183;-64
2020/12/09 05:00:07;;;;;;;5.13;4.60;;;;;;;;;;5075763;28;20188;-64
2020/12/09 05:02:45;;;;;;;4.93;4.03;;;;;;;;;;5093012;28;20181;-63
2020/12/09 05:05:13;;;;;;;5.10;4.53;;;;;;;;;;5093254;28;20187;-63
2020/12/09 05:07:45;;;;;;;5.37;4.60;;;;;;;;;;5095929;28;20564;-63
2020/12/09 05:10:13;;;;;;;5.03;4.53;;;;;;;;;;5096483;28;20176;-63
2020/12/09 05:12:41;;;;;;;4.23;3.83;;;;;;;;;;5096239;28;20208;-65
2020/12/09 05:15:10;;;;;;;4.67;4.27;;;;;;;;;;5096260;28;20177;-64
2020/12/09 05:17:48;;;;;;;5.43;4.93;;;;;;;;;;5096598;28;20544;-65
2020/12/09 05:20:14;;;;;;;4.60;4.20;;;;;;;;;;5096247;28;20169;-63
2020/12/09 05:22:43;;;;;;;5.00;4.50;;;;;;;;;;5096287;28;20264;-63
2020/12/09 05:25:08;;;;;;;4.57;4.17;;;;;;;;;;5096235;28;20173;-64
2020/12/09 05:27:34;;;;;;;5.00;4.50;;;;;;;;;;5096271;28;20203;-64
2020/12/09 05:29:59;;;;;;;5.50;4.70;;;;;;;;;;5095822;28;20183;-65
2020/12/09 05:32:24;;;;;;;5.03;4.53;;;;;;;;;;5095846;28;20197;-64
2020/12/09 05:34:50;;;;;;;5.20;4.70;;;;;;;;;;5096530;28;20208;-64
2020/12/09 05:37:15;;;;;;;5.73;4.93;;;;;;;;;;5096283;28;20177;-64
2020/12/09 05:39:54;;;;;;;5.23;4.57;;;;;;;;;;5096132;28;20173;-65
2020/12/09 05:42:22;;;;;;;4.57;4.10;;;;;;;;;;5096072;28;20200;-65
2020/12/09 05:44:48;;;;;;;5.23;4.53;;;;;;;;;;5095943;28;20211;-64
2020/12/09 05:47:14;;;;;;;5.77;4.63;;;;;;;;;;5095897;28;20511;-65
2020/12/09 05:49:41;;;;;;;5.03;4.53;;;;;;;;;;5095725;28;20233;-64
2020/12/09 05:52:18;;;;;;;5.50;4.87;;;;;;;;;;5095658;28;20204;-64
2020/12/09 05:54:46;;;;;;;5.13;4.40;;;;;;;;;;5095829;28;20168;-64
2020/12/09 05:57:14;;;;;;;4.90;4.40;;;;;;;;;;5095795;28;20548;-64
2020/12/09 05:59:50;;;;;;;4.93;4.43;;;;;;;;;;5095443;28;20185;-64
2020/12/09 06:02:20;;;;;;;4.70;4.30;;;;;;;;;;5095488;28;20252;-64
2020/12/09 06:04:46;;;;;;;4.80;4.30;;;;;;;;;;5095409;28;20187;-65
2020/12/09 06:07:11;;;;;;;4.70;4.20;;;;;;;;;;5095454;28;20201;-64
2020/12/09 06:09:38;;;;;;;4.90;4.20;;;;;;;;;;5095777;28;20202;-62
2020/12/09 06:12:04;;;;;;;5.40;4.90;;;;;;;;;;5095093;28;20210;-64
2020/12/09 06:14:29;;;;;;;4.83;4.33;;;;;;;;;;5095138;28;20181;-64
2020/12/09 06:16:54;;;;;;;4.97;4.40;;;;;;;;;;5095209;28;20637;-64
2020/12/09 06:19:19;;;;;;;4.83;4.40;;;;;;;;;;5094434;28;20177;-64
2020/12/09 06:21:45;;;;;;;4.90;4.40;;;;;;;;;;5095176;28;20260;-65
2020/12/09 06:24:10;;;;;;;5.37;4.57;;;;;;;;;;5095282;28;20270;-62
2020/12/09 06:26:35;;;;;;;5.23;4.63;;;;;;;;;;5095285;28;20185;-62
2020/12/09 06:29:01;;;;;;;4.87;4.20;;;;;;;;;;5094744;28;20812;-64
2020/12/09 06:31:26;;;;;;;4.87;4.37;;;;;;;;;;5094474;28;20220;-64
2020/12/09 06:33:53;;;;;;;5.23;4.73;;;;;;;;;;5094896;28;20195;-64
2020/12/09 06:36:30;;;;;;;5.90;5.30;;;;;;;;;;5095135;28;20226;-63
2020/12/09 06:39:04;;;;;;;7.27;5.47;;;;;;;;;;5094973;28;20171;-64
2020/12/09 06:41:33;;;;;;;6.53;5.30;;;;;;;;;;5094706;28;20233;-62
2020/12/09 06:44:03;;;;;;;6.67;5.17;;;;;;;;;;5094888;28;20542;-62
2020/12/09 06:46:40;;;;;;;8.37;6.37;;;;;;;;;;5094742;28;20226;-65
2020/12/09 06:49:28;;;;;;;6.67;5.27;;;;;;;;;;5094550;28;20188;-67
2020/12/09 06:52:13;;;;;;;8.60;5.57;;;;;;;;;;5094323;28;20256;-63
2020/12/09 06:54:43;;;;;;;8.50;5.43;;;;;;;;;;5094306;28;20191;-64
2020/12/09 06:57:19;;;;;;;9.53;6.07;;;;;;;;;;5094580;28;20242;-64
2020/12/09 06:59:47;;;;;;;7.00;5.70;;;;;;;;;;5093001;28;20191;-65
2020/12/09 07:02:34;;;;;;;8.23;5.70;;;;;;;;;;5094340;28;20230;-63
2020/12/09 07:04:59;;;;;;;9.23;5.23;;;;;;;;;;5094369;28;20558;-64
2020/12/09 07:07:30;;;;;;;6.57;4.87;;;;;;;;;;5093168;28;20288;-63
2020/12/09 07:09:56;;;;;;;10.50;4.93;;;;;;;;;;5094504;28;20185;-63
2020/12/09 07:12:23;;;;;;;7.85;4.88;;;;;;;;;;5093969;28;20574;-62
2020/12/09 07:14:53;;;;;;;7.47;4.30;;;;;;;;;;5094092;28;20180;-64
2020/12/09 07:17:24;;;;;;;6.60;4.68;;;;;;;;;;5094164;28;20582;-63
2020/12/09 07:19:50;;;;;;;8.27;4.93;;;;;;;;;;5093998;28;20179;-63
2020/12/09 07:22:16;;;;;;;7.60;4.88;;;;;;;;;;5094110;28;20176;-63
2020/12/09 07:24:42;;;;;;;8.20;5.22;;;;;;;;;;5094100;28;20184;-63
2020/12/09 07:27:12;;;;;;;6.70;4.97;;;;;;;;;;5093901;28;20192;-64
2020/12/09 07:29:38;;;;;;;9.70;5.28;;;;;;;;;;5093282;28;20513;-63
2020/12/09 07:32:05;;;;;;;5.97;4.85;;;;;;;;;;5093388;28;20267;-62
2020/12/09 07:34:30;;;;;;;7.95;4.93;;;;;;;;;;5094035;28;20207;-62
2020/12/09 07:36:56;;;;;;;8.80;5.28;;;;;;;;;;5093624;28;20169;-65
2020/12/09 07:39:29;;;;;;;6.03;4.85;;;;;;;;;;5093594;28;20176;-63
2020/12/09 07:41:57;;;;;;;6.57;4.70;;;;;;;;;;5093979;28;20676;-63
2020/12/09 07:44:22;;;;;;;7.70;4.60;;;;;;;;;;5093887;28;20549;-63
2020/12/09 07:46:56;;;;;;;12.38;5.53;;;;;;;;;;5093519;28;20180;-62
2020/12/09 07:49:22;;;;;;;7.50;4.93;;;;;;;;;;5093550;28;20664;-64
2020/12/09 07:51:48;;;;;;;8.98;5.43;;;;;;;;;;5092656;28;20471;-63
2020/12/09 07:54:14;;;;;;;6.60;4.97;;;;;;;;;;5093649;28;20172;-63
2020/12/09 07:56:39;;;;;;;5.32;4.60;;;;;;;;;;5093744;28;20550;-65
2020/12/09 07:59:05;;;;;;;7.68;5.63;;;;;;;;;;5093671;28;20172;-64
2020/12/09 08:01:30;;;;;;;7.18;5.25;;;;;;;;;;5093599;28;20176;-63
2020/12/09 08:03:55;;;;;;;8.27;5.43;;;;;;;;;;5093655;28;20235;-62
2020/12/09 08:06:22;;;;;;;7.22;5.38;;;;;;;;;;5093539;28;20189;-63
2020/12/09 08:08:49;;;;;;;6.75;5.25;;;;;;;;;;5093850;28;20181;-64
2020/12/09 08:11:15;;;;;;;9.77;7.65;;;;;;;;;;5093332;28;20493;-64
2020/12/09 08:13:40;;;;;;;9.57;7.43;;;;;;;;;;5093344;28;20245;-62
2020/12/09 08:16:09;;;;;;;10.68;8.43;;;;;;;;;;5093422;28;20173;-63
2020/12/09 08:18:36;;;;;;;9.45;7.63;;;;;;;;;;5093476;28;20183;-63
2020/12/09 08:21:01;;;;;;;8.98;7.53;;;;;;;;;;5093474;28;20188;-63
2020/12/09 08:23:46;;;;;;;10.68;8.20;;;;;;;;;;5093223;28;20173;-64
2020/12/09 08:26:11;;;;;;;12.32;8.30;;;;;;;;;;5093239;28;20181;-62
2020/12/09 08:28:37;;;;;;;10.50;7.47;;;;;;;;;;5093188;28;20262;-63
2020/12/09 08:31:19;;;;;;;10.88;8.25;;;;;;;;;;5093137;28;20243;-64
2020/12/09 08:33:44;;;;;;;9.57;7.35;;;;;;;;;;5093393;28;20315;-63
2020/12/09 08:36:11;;;;;;;9.75;7.38;;;;;;;;;;5093111;28;20260;-62
2020/12/09 08:38:38;;;;;;;10.65;8.15;;;;;;;;;;5093111;28;20171;-63
2020/12/09 08:41:09;;;;;;;12.13;7.78;;;;;;;;;;5093858;28;20302;-64
2020/12/09 08:43:36;;;;;;;8.95;7.32;;;;;;;;;;5096913;28;20161;-64
2020/12/09 08:46:06;;;;;;;10.48;7.65;;;;;;;;;;5097248;28;20255;-62
2020/12/09 08:48:33;;;;;;;9.90;7.00;;;;;;;;;;5097305;28;20184;-63
2020/12/09 08:50:59;;;;;;;13.65;6.93;;;;;;;;;;5097463;28;20181;-63
2020/12/09 08:53:24;;;;;;;10.18;7.45;;;;;;;;;;5096802;28;20189;-64
2020/12/09 08:55:49;;;;;;;10.77;6.65;;;;;;;;;;5096816;28;20169;-62
2020/12/09 08:58:16;;;;;;;10.27;7.00;;;;;;;;;;5095491;28;20183;-63
2020/12/09 09:00:42;;;;;;;9.90;6.78;;;;;;;;;;5096626;28;20208;-64
2020/12/09 09:03:12;;;;;;;10.27;6.78;;;;;;;;;;5096950;28;20348;-63
2020/12/09 09:05:40;;;;;;;10.43;6.82;;;;;;;;;;5096867;28;20161;-64
2020/12/09 09:08:06;;;;;;;10.13;7.15;;;;;;;;;;5096730;28;20258;-64
2020/12/09 09:10:32;;;;;;;8.82;6.57;;;;;;;;;;5096859;28;20250;-64
2020/12/09 09:12:57;;;;;;;9.63;6.70;;;;;;;;;;5096227;28;20594;-64
2020/12/09 09:15:25;;;;;;;9.10;6.30;;;;;;;;;;5096530;28;20184;-64
2020/12/09 09:17:50;;;;;;;10.77;6.00;;;;;;;;;;5096164;28;20215;-63
2020/12/09 09:20:15;;;;;;;9.85;7.20;;;;;;;;;;5096551;28;20185;-62
2020/12/09 09:22:41;;;;;;;10.32;6.65;;;;;;;;;;5096221;28;20649;-63
2020/12/09 09:25:06;;;;;;;7.82;6.28;;;;;;;;;;5096266;28;20168;-62
2020/12/09 09:27:32;;;;;;;10.55;6.38;;;;;;;;;;5096103;28;20179;-64
2020/12/09 09:29:58;;;;;;;9.13;6.60;;;;;;;;;;5096170;28;20515;-63
2020/12/09 09:32:25;;;;;;;9.85;7.07;;;;;;;;;;5096438;28;20307;-64
2020/12/09 09:34:50;;;;;;;11.20;6.70;;;;;;;;;;5096197;28;20177;-63
2020/12/09 09:37:16;;;;;;;9.88;6.68;;;;;;;;;;5096171;28;20268;-63
2020/12/09 09:39:43;;;;;;;11.63;6.88;;;;;;;;;;5095989;28;20200;-64
2020/12/09 09:42:09;;;;;;;10.57;6.70;;;;;;;;;;5095694;28;20255;-63
2020/12/09 09:44:34;;;;;;;8.43;6.40;;;;;;;;;;5095715;28;20211;-64
2020/12/09 09:46:59;;;;;;;12.77;7.28;;;;;;;;;;5096111;28;20625;-64
2020/12/09 09:49:25;;;;;;;11.82;7.38;;;;;;;;;;5095800;28;20532;-64
2020/12/09 09:51:52;;;;;;;11.77;7.68;;;;;;;;;;5095441;28;20283;-63
2020/12/09 09:54:21;;;;;;;10.97;6.73;;;;;;;;;;5094468;28;20176;-65
2020/12/09 09:56:46;;;;;;;13.70;7.90;;;;;;;;;;5095443;28;20175;-64
2020/12/09 09:59:12;;;;;;;12.63;8.30;;;;;;;;;;5095529;28;20181;-65
2020/12/09 10:01:37;;;;;;;12.57;8.13;;;;;;;;;;5095825;28;20173;-64
2020/12/09 10:04:06;;;;;;;13.23;7.47;;;;;;;;;;5095337;28;20560;-63
2020/12/09 10:06:38;;;;;;;10.85;7.78;;;;;;;;;;5095302;28;20692;-63
2020/12/09 10:09:05;;;;;;;15.43;7.20;;;;;;;;;;5095200;28;20161;-63
2020/12/09 10:11:31;;;;;;;11.07;7.45;;;;;;;;;;5095562;28;20317;-63
2020/12/09 10:13:58;;;;;;;13.05;7.85;;;;;;;;;;5095426;28;20685;-63
2020/12/09 10:16:25;;;;;;;13.10;7.97;;;;;;;;;;5095153;28;20245;-63
2020/12/09 10:18:51;;;;;;;14.57;8.48;;;;;;;;;;5095430;28;20173;-63
2020/12/09 10:21:24;;;;;;;11.93;7.93;;;;;;;;;;5095177;28;20195;-63
2020/12/09 10:23:50;;;;;;;12.00;7.43;;;;;;;;;;5095151;28;20173;-63
2020/12/09 10:26:16;;;;;;;12.45;7.80;;;;;;;;;;5095189;28;20226;-63
2020/12/09 10:28:42;;;;;;;11.63;7.70;;;;;;;;;;5095109;28;20172;-62
2020/12/09 10:31:08;;;;;;;10.93;7.28;;;;;;;;;;5094556;28;20300;-62
2020/12/09 10:33:33;;;;;;;14.30;8.63;;;;;;;;;;5094682;28;20613;-63
2020/12/09 10:35:58;;;;;;;12.87;8.47;;;;;;;;;;5094899;28;20165;-62
2020/12/09 10:38:24;;;;;;;13.20;8.00;;;;;;;;;;5094689;28;20222;-62
2020/12/09 10:40:49;;;;;;;15.25;8.27;;;;;;;;;;5094856;28;20173;-63
2020/12/09 10:43:14;;;;;;;12.00;8.00;;;;;;;;;;5094733;28;20177;-62
2020/12/09 10:45:40;;;;;;;13.48;8.20;;;;;;;;;;5094893;28;20617;-62
2020/12/09 10:48:05;;;;;;;11.50;7.90;;;;;;;;;;5093402;28;20315;-63
2020/12/09 10:50:30;;;;;;;12.25;8.07;;;;;;;;;;5094569;28;20177;-62
2020/12/09 10:52:57;;;;;;;12.43;7.82;;;;;;;;;;5094820;28;20246;-62
2020/12/09 10:55:23;;;;;;;14.00;8.70;;;;;;;;;;5094670;28;20642;-62
2020/12/09 10:57:49;;;;;;;13.85;8.48;;;;;;;;;;5094696;28;20187;-63
2020/12/09 11:00:14;;;;;;;14.17;8.80;;;;;;;;;;5094906;28;20172;-64
2020/12/09 11:02:39;;;;;;;12.13;7.73;;;;;;;;;;5094432;28;20166;-63
2020/12/09 11:05:05;;;;;;;14.33;8.30;;;;;;;;;;5094237;28;20226;-65
2020/12/09 11:07:30;;;;;;;11.87;8.90;;;;;;;;;;5094309;28;20538;-64
2020/12/09 11:09:56;;;;;;;12.13;8.33;;;;;;;;;;5094066;28;20183;-62
2020/12/09 11:12:21;;;;;;;12.77;7.72;;;;;;;;;;5093917;28;20204;-63
2020/12/09 11:14:48;;;;;;;12.80;8.00;;;;;;;;;;5094026;28;20628;-64
2020/12/09 11:17:14;;;;;;;13.13;8.60;;;;;;;;;;5094036;28;20187;-64
2020/12/09 11:19:39;;;;;;;12.70;8.55;;;;;;;;;;5093891;28;20168;-63
2020/12/09 11:22:04;;;;;;;11.25;8.68;;;;;;;;;;5094225;28;20165;-62
2020/12/09 11:24:30;;;;;;;13.10;8.23;;;;;;;;;;5093868;28;20177;-62
2020/12/09 11:26:55;;;;;;;13.17;8.73;;;;;;;;;;5093764;28;20169;-63
2020/12/09 11:29:21;;;;;;;12.53;8.33;;;;;;;;;;5093760;28;20191;-63
2020/12/09 11:31:46;;;;;;;12.20;8.90;;;;;;;;;;5093502;28;20228;-63
2020/12/09 11:34:12;;;;;;;14.80;8.80;;;;;;;;;;5093911;28;20231;-62
2020/12/09 11:36:38;;;;;;;11.50;8.13;;;;;;;;;;5092517;28;20287;-63
2020/12/09 11:39:03;;;;;;;10.40;7.50;;;;;;;;;;5093937;28;20199;-62
2020/12/09 11:41:30;;;;;;;13.23;8.57;;;;;;;;;;5093671;28;20176;-63
2020/12/09 11:43:56;;;;;;;12.87;8.27;;;;;;;;;;5093599;28;20176;-63
2020/12/09 11:46:23;;;;;;;9.33;7.43;;;;;;;;;;5093546;28;20181;-65
2020/12/09 11:48:49;;;;;;;12.67;8.53;;;;;;;;;;5093561;28;20546;-64
2020/12/09 11:51:15;;;;;;;11.67;8.07;;;;;;;;;;5093423;28;20225;-63
2020/12/09 11:53:41;;;;;;;13.20;8.83;;;;;;;;;;5093424;28;20291;-63
2020/12/09 11:56:07;;;;;;;11.33;8.33;;;;;;;;;;5093423;28;20180;-65
2020/12/09 11:58:32;;;;;;;12.63;8.60;;;;;;;;;;5094087;28;20191;-63
2020/12/09 12:00:57;;;;;;;10.97;7.50;;;;;;;;;;5093475;28;20644;-63
2020/12/09 12:03:23;;;;;;;11.13;8.03;;;;;;;;;;5093273;28;20181;-61
2020/12/09 12:05:52;;;;;;;11.20;8.17;;;;;;;;;;5093293;28;20230;-62
2020/12/09 12:08:17;;;;;;;10.50;7.50;;;;;;;;;;5093374;28;20180;-62
2020/12/09 12:10:43;;;;;;;9.67;7.13;;;;;;;;;;5093362;28;20234;-64
2020/12/09 12:13:08;;;;;;;11.00;7.97;;;;;;;;;;5092150;28;20211;-61
2020/12/09 12:15:33;;;;;;;10.83;7.87;;;;;;;;;;5093318;28;20633;-63
2020/12/09 12:17:59;;;;;;;11.00;7.20;;;;;;;;;;5097414;28;20584;-61
2020/12/09 12:20:24;;;;;;;11.23;7.93;;;;;;;;;;5097410;28;20215;-62
2020/12/09 12:22:49;;;;;;;10.63;7.43;;;;;;;;;;5097197;28;20224;-63
2020/12/09 12:25:14;;;;;;;10.77;7.93;;;;;;;;;;5097249;28;20181;-64
2020/12/09 12:27:40;;;;;;;10.57;7.22;;;;;;;;;;5097311;28;20179;-62
2020/12/09 12:30:05;;;;;;;9.60;7.27;;;;;;;;;;5097041;28;20214;-61
2020/12/09 12:32:31;;;;;;;8.90;6.85;;;;;;;;;;5096984;28;20313;-62
2020/12/09 12:34:56;;;;;;;9.68;7.28;;;;;;;;;;5097137;28;20177;-62
2020/12/09 12:37:21;;;;;;;10.20;7.00;;;;;;;;;;5097061;28;20183;-62
2020/12/09 12:39:46;;;;;;;10.77;7.57;;;;;;;;;;5097045;28;20283;-61
2020/12/09 12:42:12;;;;;;;9.60;7.03;;;;;;;;;;5097130;28;20263;-62
2020/12/09 12:44:37;;;;;;;11.40;7.17;;;;;;;;;;5095590;28;20550;-64
2020/12/09 12:47:02;;;;;;;9.33;6.83;;;;;;;;;;5097096;28;20234;-63
2020/12/09 12:49:28;;;;;;;11.10;6.67;;;;;;;;;;5097045;28;20185;-63
2020/12/09 12:51:57;;;;;;;8.53;6.97;;;;;;;;;;5096764;28;20173;-63
2020/12/09 12:54:22;;;;;;;8.27;6.33;;;;;;;;;;5096765;28;20570;-64
2020/12/09 12:56:47;;;;;;;9.63;7.07;;;;;;;;;;5096610;28;20173;-62
2020/12/09 12:59:12;;;;;;;9.53;7.20;;;;;;;;;;5096766;28;20199;-63
2020/12/09 13:01:38;;;;;;;10.10;7.77;;;;;;;;;;5096539;28;20181;-62
2020/12/09 13:04:03;;;;;;;8.00;6.33;;;;;;;;;;5096570;28;20672;-62
2020/12/09 13:06:28;;;;;;;8.33;6.50;;;;;;;;;;5096462;28;20313;-62
2020/12/09 13:08:53;;;;;;;8.57;6.80;;;;;;;;;;5096925;28;20646;-63
2020/12/09 13:11:19;;;;;;;8.50;6.60;;;;;;;;;;5096381;28;20181;-63
2020/12/09 13:13:44;;;;;;;8.20;6.53;;;;;;;;;;5096608;28;20289;-63
2020/12/09 13:16:10;;;;;;;9.50;6.70;;;;;;;;;;5096264;28;20176;-62
2020/12/09 13:18:36;;;;;;;8.37;6.40;;;;;;;;;;5096197;28;20238;-62
2020/12/09 13:21:02;;;;;;;12.43;8.30;;;;;;;;;;5096537;28;20176;-63
2020/12/09 13:23:27;;;;;;;9.80;8.23;;;;;;;;;;5096185;28;20172;-65
2020/12/09 13:25:53;;;;;;;12.27;9.10;;;;;;;;;;5096193;28;20176;-63
2020/12/09 13:28:18;;;;;;;13.23;9.90;;;;;;;;;;5094742;28;20185;-61
2020/12/09 13:30:43;;;;;;;12.77;9.87;;;;;;;;;;5095926;28;20308;-63
2020/12/09 13:33:12;;;;;;;17.90;12.03;;;;;;;;;;5096099;28;20196;-62
2020/12/09 13:35:40;;;;;;;16.73;11.37;;;;;;;;;;5096188;28;20534;-64
2020/12/09 13:38:06;;;;;;;19.37;12.53;;;;;;;;;;5094603;28;20296;-63
2020/12/09 13:40:31;;;;;;;16.87;12.73;;;;;;;;;;5095860;28;20269;-63
2020/12/09 13:42:56;;;;;;;17.20;13.40;;;;;;;;;;5095773;28;20165;-62
2020/12/09 13:45:22;;;;;;;17.63;12.33;;;;;;;;;;5095721;28;20208;-61
2020/12/09 13:47:47;;;;;;;14.77;10.23;;;;;;;;;;5095777;28;20194;-62
2020/12/09 13:50:12;;;;;;;12.50;9.60;;;;;;;;;;5095751;28;20177;-61
2020/12/09 13:52:37;;;;;;;11.10;8.90;;;;;;;;;;5095569;28;20652;-62
2020/12/09 13:55:04;;;;;;;17.43;9.40;;;;;;;;;;5095530;28;20173;-63
2020/12/09 13:57:29;;;;;;;12.27;9.07;;;;;;;;;;5095544;28;20200;-62
2020/12/09 13:59:55;;;;;;;13.93;9.47;;;;;;;;;;5095562;28;20625;-62
2020/12/09 14:02:20;;;;;;;12.60;9.45;;;;;;;;;;5094261;28;20177;-63
2020/12/09 14:04:45;;;;;;;12.27;9.23;;;;;;;;;;5095456;28;20625;-61
2020/12/09 14:07:11;;;;;;;12.57;9.13;;;;;;;;;;5095271;28;20227;-63
2020/12/09 14:09:38;;;;;;;12.50;8.33;;;;;;;;;;5095342;28;20172;-62
2020/12/09 14:12:03;;;;;;;10.80;8.00;;;;;;;;;;5095038;28;20201;-62
2020/12/09 14:14:29;;;;;;;10.90;7.87;;;;;;;;;;5095218;28;20660;-61
2020/12/09 14:16:54;;;;;;;12.07;8.47;;;;;;;;;;5095107;28;20208;-62
2020/12/09 14:19:26;;;;;;;11.23;8.60;;;;;;;;;;5093946;28;20183;-61
2020/12/09 14:21:51;;;;;;;12.73;8.90;;;;;;;;;;5095199;28;20202;-61
2020/12/09 14:24:17;;;;;;;10.43;8.17;;;;;;;;;;5095021;28;20212;-63
2020/12/09 14:26:44;;;;;;;11.60;8.90;;;;;;;;;;5095210;28;20633;-62
2020/12/09 14:29:13;;;;;;;12.10;8.37;;;;;;;;;;5095003;28;20181;-62
2020/12/09 14:31:39;;;;;;;10.17;7.87;;;;;;;;;;5094749;28;20224;-63
2020/12/09 14:34:04;;;;;;;9.77;7.80;;;;;;;;;;5094903;28;20201;-63